sensor_id;sensor_type;location;lat;lon;timestamp;temperature;humidity
23010;DHT22;11671;49.990;8.028;2023-11-21T00:01:15;10.80;99.90
23010;DHT22;11671;49.990;8.028;2023-11-21T00:03:40;10.70;99.90
23010;DHT22;11671;49.990;8.028;2023-11-21T00:06:06;10.70;99.90
23010;DHT22;11671;49.990;8.028;2023-11-21T00:08:35;10.70;99.90
23010;DHT22;11671;49.990;8.028;2023-11-21T00:11:00;10.70;99.90
23010;DHT22;11671;49.990;8.028;2023-11-21T00:13:26;10.80;99.90
23010;DHT22;11671;49.990;8.028;2023-11-21T00:15:52;10.80;99.90
23010;DHT22;11671;49.990;8.028;2023-11-21T00:18:17;10.80;99.90
23010;DHT22;11671;49.990;8.028;2023-11-21T00:20:43;10.80;99.90
23010;DHT22;11671;49.990;8.028;2023-11-21T00:23:08;10.80;99.90
23010;DHT22;11671;49.990;8.028;2023-11-21T00:25:34;10.80;99.90
23010;DHT22;11671;49.990;8.028;2023-11-21T00:28:00;10.80;99.90
23010;DHT22;11671;49.990;8.028;2023-11-21T00:30:27;10.90;99.90
23010;DHT22;11671;49.990;8.028;2023-11-21T00:32:52;10.90;99.90
23010;DHT22;11671;49.990;8.028;2023-11-21T00:35:18;10.80;99.90
23010;DHT22;11671;49.990;8.028;2023-11-21T00:37:43;10.80;99.90
23010;DHT22;11671;49.990;8.028;2023-11-21T00:40:09;10.70;99.90
23010;DHT22;11671;49.990;8.028;2023-11-21T00:42:35;10.70;99.90
23010;DHT22;11671;49.990;8.028;2023-11-21T00:45:00;10.80;99.90
23010;DHT22;11671;49.990;8.028;2023-11-21T00:47:26;10.80;99.90
23010;DHT22;11671;49.990;8.028;2023-11-21T00:49:51;10.80;99.90
23010;DHT22;11671;49.990;8.028;2023-11-21T00:52:16;10.80;99.90
23010;DHT22;11671;49.990;8.028;2023-11-21T00:54:42;10.90;99.90
23010;DHT22;11671;49.990;8.028;2023-11-21T00:57:08;10.90;99.90
23010;DHT22;11671;49.990;8.028;2023-11-21T00:59:34;10.90;99.90
23010;DHT22;11671;49.990;8.028;2023-11-21T01:02:00;10.90;99.90
23010;DHT22;11671;49.990;8.028;2023-11-21T01:04:26;10.90;99.90
23010;DHT22;11671;49.990;8.028;2023-11-21T01:06:52;10.90;99.90
23010;DHT22;11671;49.990;8.028;2023-11-21T01:09:18;10.80;99.90
23010;DHT22;11671;49.990;8.028;2023-11-21T01:11:43;10.90;99.90
23010;DHT22;11671;49.990;8.028;2023-11-21T01:14:09;10.80;99.90
23010;DHT22;11671;49.990;8.028;2023-11-21T01:16:35;10.90;99.90
23010;DHT22;11671;49.990;8.028;2023-11-21T01:19:01;10.90;99.90
23010;DHT22;11671;49.990;8.028;2023-11-21T01:21:27;10.90;99.90
23010;DHT22;11671;49.990;8.028;2023-11-21T01:23:53;10.90;99.90
23010;DHT22;11671;49.990;8.028;2023-11-21T01:26:20;10.90;99.90
23010;DHT22;11671;49.990;8.028;2023-11-21T01:28:46;10.90;99.90
23010;DHT22;11671;49.990;8.028;2023-11-21T01:31:17;11.00;99.90
23010;DHT22;11671;49.990;8.028;2023-11-21T01:33:42;11.00;99.90
23010;DHT22;11671;49.990;8.028;2023-11-21T01:36:08;10.90;99.90
23010;DHT22;11671;49.990;8.028;2023-11-21T01:38:33;10.90;99.90
23010;DHT22;11671;49.990;8.028;2023-11-21T01:41:00;10.90;99.90
23010;DHT22;11671;49.990;8.028;2023-11-21T01:43:26;10.90;99.90
23010;DHT22;11671;49.990;8.028;2023-11-21T01:45:53;10.90;99.90
23010;DHT22;11671;49.990;8.028;2023-11-21T01:48:19;10.90;99.90
23010;DHT22;11671;49.990;8.028;2023-11-21T01:50:44;10.90;99.90
23010;DHT22;11671;49.990;8.028;2023-11-21T01:53:11;10.90;99.90
23010;DHT22;11671;49.990;8.028;2023-11-21T01:55:38;10.90;99.90
23010;DHT22;11671;49.990;8.028;2023-11-21T01:58:09;10.90;99.90
23010;DHT22;11671;49.990;8.028;2023-11-21T02:00:36;10.90;99.90
23010;DHT22;11671;49.990;8.028;2023-11-21T02:03:03;10.90;99.90
23010;DHT22;11671;49.990;8.028;2023-11-21T02:05:29;10.90;99.90
23010;DHT22;11671;49.990;8.028;2023-11-21T02:07:54;11.00;99.90
23010;DHT22;11671;49.990;8.028;2023-11-21T02:10:21;11.00;99.90
23010;DHT22;11671;49.990;8.028;2023-11-21T02:12:48;11.00;99.90
23010;DHT22;11671;49.990;8.028;2023-11-21T02:15:15;11.00;99.90
23010;DHT22;11671;49.990;8.028;2023-11-21T02:17:45;11.00;99.90
23010;DHT22;11671;49.990;8.028;2023-11-21T02:20:12;11.00;99.90
23010;DHT22;11671;49.990;8.028;2023-11-21T02:22:41;11.00;99.90
23010;DHT22;11671;49.990;8.028;2023-11-21T02:25:07;11.00;99.90
23010;DHT22;11671;49.990;8.028;2023-11-21T02:27:33;11.00;99.90
23010;DHT22;11671;49.990;8.028;2023-11-21T02:29:58;11.00;99.90
23010;DHT22;11671;49.990;8.028;2023-11-21T02:32:25;11.00;99.90
23010;DHT22;11671;49.990;8.028;2023-11-21T02:34:51;11.00;99.90
23010;DHT22;11671;49.990;8.028;2023-11-21T02:37:16;11.00;99.90
23010;DHT22;11671;49.990;8.028;2023-11-21T02:39:42;11.00;99.90
23010;DHT22;11671;49.990;8.028;2023-11-21T02:42:08;11.00;99.90
23010;DHT22;11671;49.990;8.028;2023-11-21T02:44:33;11.10;99.90
23010;DHT22;11671;49.990;8.028;2023-11-21T02:47:00;11.10;99.90
23010;DHT22;11671;49.990;8.028;2023-11-21T02:49:25;11.10;99.90
23010;DHT22;11671;49.990;8.028;2023-11-21T02:51:53;11.10;99.90
23010;DHT22;11671;49.990;8.028;2023-11-21T02:54:20;11.10;99.90
23010;DHT22;11671;49.990;8.028;2023-11-21T02:56:47;11.10;99.90
23010;DHT22;11671;49.990;8.028;2023-11-21T02:59:12;11.10;99.90
23010;DHT22;11671;49.990;8.028;2023-11-21T03:01:38;11.10;99.90
23010;DHT22;11671;49.990;8.028;2023-11-21T03:04:03;11.10;99.90
23010;DHT22;11671;49.990;8.028;2023-11-21T03:06:29;11.10;99.90
23010;DHT22;11671;49.990;8.028;2023-11-21T03:08:54;11.00;99.90
23010;DHT22;11671;49.990;8.028;2023-11-21T03:11:20;11.10;99.90
23010;DHT22;11671;49.990;8.028;2023-11-21T03:13:45;11.10;99.90
23010;DHT22;11671;49.990;8.028;2023-11-21T03:16:11;11.10;99.90
23010;DHT22;11671;49.990;8.028;2023-11-21T03:18:40;11.00;99.90
23010;DHT22;11671;49.990;8.028;2023-11-21T03:21:06;11.00;99.90
23010;DHT22;11671;49.990;8.028;2023-11-21T03:23:34;11.00;99.90
23010;DHT22;11671;49.990;8.028;2023-11-21T03:25:59;11.10;99.90
23010;DHT22;11671;49.990;8.028;2023-11-21T03:28:25;11.10;99.90
23010;DHT22;11671;49.990;8.028;2023-11-21T03:30:52;11.10;99.90
23010;DHT22;11671;49.990;8.028;2023-11-21T03:33:17;11.20;99.90
23010;DHT22;11671;49.990;8.028;2023-11-21T03:35:43;11.20;99.90
23010;DHT22;11671;49.990;8.028;2023-11-21T03:38:10;11.20;99.90
23010;DHT22;11671;49.990;8.028;2023-11-21T03:40:35;11.20;99.90
23010;DHT22;11671;49.990;8.028;2023-11-21T03:43:01;11.10;99.90
23010;DHT22;11671;49.990;8.028;2023-11-21T03:45:26;11.20;99.90
23010;DHT22;11671;49.990;8.028;2023-11-21T03:47:52;11.10;99.90
23010;DHT22;11671;49.990;8.028;2023-11-21T03:50:17;11.10;99.90
23010;DHT22;11671;49.990;8.028;2023-11-21T03:52:43;11.00;99.90
23010;DHT22;11671;49.990;8.028;2023-11-21T03:55:08;11.00;99.90
23010;DHT22;11671;49.990;8.028;2023-11-21T03:57:35;10.90;99.90
23010;DHT22;11671;49.990;8.028;2023-11-21T04:00:01;10.90;99.90
23010;DHT22;11671;49.990;8.028;2023-11-21T04:02:29;10.90;99.90
23010;DHT22;11671;49.990;8.028;2023-11-21T04:04:56;11.00;99.90
23010;DHT22;11671;49.990;8.028;2023-11-21T04:07:22;11.00;99.90
23010;DHT22;11671;49.990;8.028;2023-11-21T04:09:47;11.00;99.90
23010;DHT22;11671;49.990;8.028;2023-11-21T04:12:13;11.00;99.90
23010;DHT22;11671;49.990;8.028;2023-11-21T04:14:38;11.00;99.90
23010;DHT22;11671;49.990;8.028;2023-11-21T04:17:04;10.90;99.90
23010;DHT22;11671;49.990;8.028;2023-11-21T04:19:29;10.90;99.90
23010;DHT22;11671;49.990;8.028;2023-11-21T04:21:55;10.80;99.90
23010;DHT22;11671;49.990;8.028;2023-11-21T04:24:20;10.80;99.90
23010;DHT22;11671;49.990;8.028;2023-11-21T04:26:46;10.90;99.90
23010;DHT22;11671;49.990;8.028;2023-11-21T04:29:12;10.90;99.90
23010;DHT22;11671;49.990;8.028;2023-11-21T04:31:37;10.90;99.90
23010;DHT22;11671;49.990;8.028;2023-11-21T04:34:03;10.90;99.90
23010;DHT22;11671;49.990;8.028;2023-11-21T04:36:31;10.90;99.90
23010;DHT22;11671;49.990;8.028;2023-11-21T04:38:57;10.90;99.90
23010;DHT22;11671;49.990;8.028;2023-11-21T04:41:22;11.00;99.90
23010;DHT22;11671;49.990;8.028;2023-11-21T04:43:48;11.00;99.90
23010;DHT22;11671;49.990;8.028;2023-11-21T04:46:14;11.00;99.90
23010;DHT22;11671;49.990;8.028;2023-11-21T04:48:40;11.00;99.90
23010;DHT22;11671;49.990;8.028;2023-11-21T04:51:05;11.00;99.90
23010;DHT22;11671;49.990;8.028;2023-11-21T04:53:31;11.00;99.90
23010;DHT22;11671;49.990;8.028;2023-11-21T04:55:57;11.00;99.90
23010;DHT22;11671;49.990;8.028;2023-11-21T04:58:23;11.00;99.90
23010;DHT22;11671;49.990;8.028;2023-11-21T05:00:48;11.00;99.90
23010;DHT22;11671;49.990;8.028;2023-11-21T05:03:15;11.00;99.90
23010;DHT22;11671;49.990;8.028;2023-11-21T05:05:40;11.00;99.90
23010;DHT22;11671;49.990;8.028;2023-11-21T05:08:06;11.00;99.90
23010;DHT22;11671;49.990;8.028;2023-11-21T05:10:31;10.90;99.90
23010;DHT22;11671;49.990;8.028;2023-11-21T05:12:56;10.90;99.90
23010;DHT22;11671;49.990;8.028;2023-11-21T05:15:22;10.90;99.90
23010;DHT22;11671;49.990;8.028;2023-11-21T05:17:48;10.90;99.90
23010;DHT22;11671;49.990;8.028;2023-11-21T05:20:15;10.80;99.90
23010;DHT22;11671;49.990;8.028;2023-11-21T05:22:45;10.80;99.90
23010;DHT22;11671;49.990;8.028;2023-11-21T05:25:11;10.80;99.90
23010;DHT22;11671;49.990;8.028;2023-11-21T05:27:37;10.90;99.90
23010;DHT22;11671;49.990;8.028;2023-11-21T05:30:03;10.90;99.90
23010;DHT22;11671;49.990;8.028;2023-11-21T05:32:30;11.00;99.90
23010;DHT22;11671;49.990;8.028;2023-11-21T05:34:56;11.00;99.90
23010;DHT22;11671;49.990;8.028;2023-11-21T05:37:21;11.00;99.90
23010;DHT22;11671;49.990;8.028;2023-11-21T05:39:48;11.00;99.90
23010;DHT22;11671;49.990;8.028;2023-11-21T05:42:14;11.00;99.90
23010;DHT22;11671;49.990;8.028;2023-11-21T05:44:41;11.00;99.90
23010;DHT22;11671;49.990;8.028;2023-11-21T05:47:07;10.90;99.90
23010;DHT22;11671;49.990;8.028;2023-11-21T05:49:32;10.90;99.90
23010;DHT22;11671;49.990;8.028;2023-11-21T05:51:58;10.90;99.90
23010;DHT22;11671;49.990;8.028;2023-11-21T05:54:24;10.90;99.90
23010;DHT22;11671;49.990;8.028;2023-11-21T05:56:50;10.90;99.90
23010;DHT22;11671;49.990;8.028;2023-11-21T05:59:16;10.90;99.90
23010;DHT22;11671;49.990;8.028;2023-11-21T06:01:41;10.80;99.90
23010;DHT22;11671;49.990;8.028;2023-11-21T06:04:07;10.90;99.90
23010;DHT22;11671;49.990;8.028;2023-11-21T06:06:36;10.90;99.90
23010;DHT22;11671;49.990;8.028;2023-11-21T06:09:01;10.90;99.90
23010;DHT22;11671;49.990;8.028;2023-11-21T06:11:27;10.90;99.90
23010;DHT22;11671;49.990;8.028;2023-11-21T06:13:53;10.90;99.90
23010;DHT22;11671;49.990;8.028;2023-11-21T06:16:21;11.00;99.90
23010;DHT22;11671;49.990;8.028;2023-11-21T06:18:47;10.90;99.90
23010;DHT22;11671;49.990;8.028;2023-11-21T06:21:12;11.00;99.90
23010;DHT22;11671;49.990;8.028;2023-11-21T06:23:38;11.00;99.90
23010;DHT22;11671;49.990;8.028;2023-11-21T06:26:04;11.00;99.90
23010;DHT22;11671;49.990;8.028;2023-11-21T06:28:30;11.00;99.90
23010;DHT22;11671;49.990;8.028;2023-11-21T06:30:56;11.00;99.90
23010;DHT22;11671;49.990;8.028;2023-11-21T06:33:23;11.00;99.90
23010;DHT22;11671;49.990;8.028;2023-11-21T06:35:49;10.90;99.90
23010;DHT22;11671;49.990;8.028;2023-11-21T06:38:15;10.90;99.90
23010;DHT22;11671;49.990;8.028;2023-11-21T06:40:40;10.90;99.90
23010;DHT22;11671;49.990;8.028;2023-11-21T06:43:06;10.90;99.90
23010;DHT22;11671;49.990;8.028;2023-11-21T06:45:33;10.90;99.90
23010;DHT22;11671;49.990;8.028;2023-11-21T06:47:59;10.90;99.90
23010;DHT22;11671;49.990;8.028;2023-11-21T06:50:25;10.90;99.90
23010;DHT22;11671;49.990;8.028;2023-11-21T06:52:50;10.90;99.90
23010;DHT22;11671;49.990;8.028;2023-11-21T06:55:16;11.00;99.90
23010;DHT22;11671;49.990;8.028;2023-11-21T06:57:41;11.00;99.90
23010;DHT22;11671;49.990;8.028;2023-11-21T07:00:08;11.00;99.90
23010;DHT22;11671;49.990;8.028;2023-11-21T07:02:34;11.10;99.90
23010;DHT22;11671;49.990;8.028;2023-11-21T07:04:59;11.10;99.90
23010;DHT22;11671;49.990;8.028;2023-11-21T07:07:25;11.10;99.90
23010;DHT22;11671;49.990;8.028;2023-11-21T07:09:50;11.20;99.90
23010;DHT22;11671;49.990;8.028;2023-11-21T07:12:17;11.20;99.90
23010;DHT22;11671;49.990;8.028;2023-11-21T07:14:43;11.20;99.90
23010;DHT22;11671;49.990;8.028;2023-11-21T07:17:13;11.20;99.90
23010;DHT22;11671;49.990;8.028;2023-11-21T07:19:38;11.30;99.90
23010;DHT22;11671;49.990;8.028;2023-11-21T07:22:04;11.30;99.90
23010;DHT22;11671;49.990;8.028;2023-11-21T07:24:31;11.20;99.90
23010;DHT22;11671;49.990;8.028;2023-11-21T07:26:57;11.30;99.90
23010;DHT22;11671;49.990;8.028;2023-11-21T07:29:23;11.30;99.90
23010;DHT22;11671;49.990;8.028;2023-11-21T07:31:51;11.30;99.90
23010;DHT22;11671;49.990;8.028;2023-11-21T07:34:16;11.30;99.90
23010;DHT22;11671;49.990;8.028;2023-11-21T07:36:42;11.30;99.90
23010;DHT22;11671;49.990;8.028;2023-11-21T07:39:07;11.30;99.90
23010;DHT22;11671;49.990;8.028;2023-11-21T07:41:33;11.30;99.90
23010;DHT22;11671;49.990;8.028;2023-11-21T07:43:59;11.40;99.90
23010;DHT22;11671;49.990;8.028;2023-11-21T07:46:25;11.50;99.90
23010;DHT22;11671;49.990;8.028;2023-11-21T07:48:51;11.40;99.90
23010;DHT22;11671;49.990;8.028;2023-11-21T07:51:17;11.40;99.90
23010;DHT22;11671;49.990;8.028;2023-11-21T07:53:43;11.40;99.90
23010;DHT22;11671;49.990;8.028;2023-11-21T07:56:08;11.40;99.90
23010;DHT22;11671;49.990;8.028;2023-11-21T07:58:35;11.50;99.90
23010;DHT22;11671;49.990;8.028;2023-11-21T08:01:01;11.50;99.90
23010;DHT22;11671;49.990;8.028;2023-11-21T08:03:27;11.50;99.90
23010;DHT22;11671;49.990;8.028;2023-11-21T08:05:52;11.50;99.90
23010;DHT22;11671;49.990;8.028;2023-11-21T08:08:18;11.50;99.90
23010;DHT22;11671;49.990;8.028;2023-11-21T08:10:44;11.50;99.90
23010;DHT22;11671;49.990;8.028;2023-11-21T08:13:24;11.50;99.90
23010;DHT22;11671;49.990;8.028;2023-11-21T08:15:50;11.60;99.90
23010;DHT22;11671;49.990;8.028;2023-11-21T08:18:15;11.60;99.90
23010;DHT22;11671;49.990;8.028;2023-11-21T08:20:42;11.60;99.90
23010;DHT22;11671;49.990;8.028;2023-11-21T08:23:08;11.60;99.90
23010;DHT22;11671;49.990;8.028;2023-11-21T08:25:34;11.60;99.90
23010;DHT22;11671;49.990;8.028;2023-11-21T08:28:00;11.70;99.90
23010;DHT22;11671;49.990;8.028;2023-11-21T08:30:25;11.70;99.90
23010;DHT22;11671;49.990;8.028;2023-11-21T08:32:54;11.80;99.90
23010;DHT22;11671;49.990;8.028;2023-11-21T08:35:23;11.80;99.90
23010;DHT22;11671;49.990;8.028;2023-11-21T08:37:52;11.80;99.90
23010;DHT22;11671;49.990;8.028;2023-11-21T08:40:21;11.80;99.90
23010;DHT22;11671;49.990;8.028;2023-11-21T08:42:47;11.80;99.90
23010;DHT22;11671;49.990;8.028;2023-11-21T08:45:19;11.80;99.90
23010;DHT22;11671;49.990;8.028;2023-11-21T08:47:45;11.90;99.90
23010;DHT22;11671;49.990;8.028;2023-11-21T08:50:10;11.90;99.90
23010;DHT22;11671;49.990;8.028;2023-11-21T08:52:37;11.90;99.90
23010;DHT22;11671;49.990;8.028;2023-11-21T08:55:03;11.90;99.90
23010;DHT22;11671;49.990;8.028;2023-11-21T08:57:35;11.90;99.90
23010;DHT22;11671;49.990;8.028;2023-11-21T09:00:02;11.90;99.90
23010;DHT22;11671;49.990;8.028;2023-11-21T09:02:28;11.90;99.90
23010;DHT22;11671;49.990;8.028;2023-11-21T09:04:53;12.00;99.90
23010;DHT22;11671;49.990;8.028;2023-11-21T09:07:19;11.90;99.90
23010;DHT22;11671;49.990;8.028;2023-11-21T09:09:46;11.90;99.90
23010;DHT22;11671;49.990;8.028;2023-11-21T09:12:11;11.90;99.90
23010;DHT22;11671;49.990;8.028;2023-11-21T09:14:37;11.80;99.90
23010;DHT22;11671;49.990;8.028;2023-11-21T09:17:04;11.90;99.90
23010;DHT22;11671;49.990;8.028;2023-11-21T09:19:38;12.00;99.90
23010;DHT22;11671;49.990;8.028;2023-11-21T09:22:04;12.00;99.90
23010;DHT22;11671;49.990;8.028;2023-11-21T09:24:33;12.00;99.90
23010;DHT22;11671;49.990;8.028;2023-11-21T09:26:59;12.10;99.90
23010;DHT22;11671;49.990;8.028;2023-11-21T09:29:25;12.00;99.90
23010;DHT22;11671;49.990;8.028;2023-11-21T09:31:51;12.00;99.90
23010;DHT22;11671;49.990;8.028;2023-11-21T09:34:17;12.10;99.90
23010;DHT22;11671;49.990;8.028;2023-11-21T09:36:45;12.10;99.90
23010;DHT22;11671;49.990;8.028;2023-11-21T09:39:11;12.10;99.90
23010;DHT22;11671;49.990;8.028;2023-11-21T09:41:49;12.10;99.90
23010;DHT22;11671;49.990;8.028;2023-11-21T09:44:20;12.20;99.90
23010;DHT22;11671;49.990;8.028;2023-11-21T09:46:48;12.20;99.90
23010;DHT22;11671;49.990;8.028;2023-11-21T09:49:21;12.20;99.90
23010;DHT22;11671;49.990;8.028;2023-11-21T09:51:48;12.20;99.90
23010;DHT22;11671;49.990;8.028;2023-11-21T09:54:14;12.20;99.90
23010;DHT22;11671;49.990;8.028;2023-11-21T09:56:41;12.20;99.90
23010;DHT22;11671;49.990;8.028;2023-11-21T09:59:08;12.20;99.90
23010;DHT22;11671;49.990;8.028;2023-11-21T10:01:38;12.30;99.90
23010;DHT22;11671;49.990;8.028;2023-11-21T10:04:04;12.30;99.90
23010;DHT22;11671;49.990;8.028;2023-11-21T10:06:31;12.40;99.90
23010;DHT22;11671;49.990;8.028;2023-11-21T10:08:57;12.40;99.90
23010;DHT22;11671;49.990;8.028;2023-11-21T10:11:24;12.40;99.90
23010;DHT22;11671;49.990;8.028;2023-11-21T10:13:52;12.50;99.90
23010;DHT22;11671;49.990;8.028;2023-11-21T10:16:19;12.60;99.90
23010;DHT22;11671;49.990;8.028;2023-11-21T10:18:46;12.70;99.90
23010;DHT22;11671;49.990;8.028;2023-11-21T10:21:12;12.80;99.90
23010;DHT22;11671;49.990;8.028;2023-11-21T10:23:38;12.80;99.90
23010;DHT22;11671;49.990;8.028;2023-11-21T10:26:03;12.80;99.90
23010;DHT22;11671;49.990;8.028;2023-11-21T10:28:29;12.90;99.90
23010;DHT22;11671;49.990;8.028;2023-11-21T10:30:54;12.90;99.90
23010;DHT22;11671;49.990;8.028;2023-11-21T10:33:26;12.90;99.90
23010;DHT22;11671;49.990;8.028;2023-11-21T10:35:52;12.90;99.90
23010;DHT22;11671;49.990;8.028;2023-11-21T10:38:20;12.90;99.90
23010;DHT22;11671;49.990;8.028;2023-11-21T10:40:50;12.90;99.90
23010;DHT22;11671;49.990;8.028;2023-11-21T10:43:16;13.00;99.90
23010;DHT22;11671;49.990;8.028;2023-11-21T10:45:42;13.00;99.90
23010;DHT22;11671;49.990;8.028;2023-11-21T10:48:08;13.10;99.90
23010;DHT22;11671;49.990;8.028;2023-11-21T10:50:34;13.20;99.90
23010;DHT22;11671;49.990;8.028;2023-11-21T10:53:01;13.30;99.90
23010;DHT22;11671;49.990;8.028;2023-11-21T10:55:27;13.20;99.90
23010;DHT22;11671;49.990;8.028;2023-11-21T10:57:53;13.20;99.90
23010;DHT22;11671;49.990;8.028;2023-11-21T11:00:19;13.20;99.90
23010;DHT22;11671;49.990;8.028;2023-11-21T11:02:50;13.20;99.90
23010;DHT22;11671;49.990;8.028;2023-11-21T11:05:16;13.30;99.90
23010;DHT22;11671;49.990;8.028;2023-11-21T11:07:44;13.40;99.90
23010;DHT22;11671;49.990;8.028;2023-11-21T11:10:10;13.40;99.90
23010;DHT22;11671;49.990;8.028;2023-11-21T11:12:40;13.50;99.90
23010;DHT22;11671;49.990;8.028;2023-11-21T11:15:06;13.60;99.90
23010;DHT22;11671;49.990;8.028;2023-11-21T11:17:36;13.80;99.90
23010;DHT22;11671;49.990;8.028;2023-11-21T11:20:04;14.00;99.90
23010;DHT22;11671;49.990;8.028;2023-11-21T11:22:42;14.20;99.90
23010;DHT22;11671;49.990;8.028;2023-11-21T11:30:36;14.40;99.90
23010;DHT22;11671;49.990;8.028;2023-11-21T11:36:00;14.30;99.90
23010;DHT22;11671;49.990;8.028;2023-11-21T11:38:31;14.30;99.90
23010;DHT22;11671;49.990;8.028;2023-11-21T11:40:56;14.30;99.90
23010;DHT22;11671;49.990;8.028;2023-11-21T11:43:25;14.30;99.90
23010;DHT22;11671;49.990;8.028;2023-11-21T11:45:51;14.30;99.90
23010;DHT22;11671;49.990;8.028;2023-11-21T11:48:18;14.40;99.90
23010;DHT22;11671;49.990;8.028;2023-11-21T11:51:02;14.70;99.90
23010;DHT22;11671;49.990;8.028;2023-11-21T11:53:33;14.90;99.90
23010;DHT22;11671;49.990;8.028;2023-11-21T11:56:18;15.00;99.90
23010;DHT22;11671;49.990;8.028;2023-11-21T11:58:44;15.10;99.90
23010;DHT22;11671;49.990;8.028;2023-11-21T12:01:11;15.10;99.90
23010;DHT22;11671;49.990;8.028;2023-11-21T12:03:37;15.10;99.90
23010;DHT22;11671;49.990;8.028;2023-11-21T12:06:02;15.20;99.90
23010;DHT22;11671;49.990;8.028;2023-11-21T12:08:28;15.10;99.90
23010;DHT22;11671;49.990;8.028;2023-11-21T12:10:56;15.00;99.90
23010;DHT22;11671;49.990;8.028;2023-11-21T12:13:22;14.80;99.90
23010;DHT22;11671;49.990;8.028;2023-11-21T12:15:48;14.70;99.90
23010;DHT22;11671;49.990;8.028;2023-11-21T12:18:14;14.60;99.90
23010;DHT22;11671;49.990;8.028;2023-11-21T12:20:39;14.40;99.90
23010;DHT22;11671;49.990;8.028;2023-11-21T12:23:06;14.10;99.90
23010;DHT22;11671;49.990;8.028;2023-11-21T12:25:34;14.00;99.90
23010;DHT22;11671;49.990;8.028;2023-11-21T12:28:02;13.80;99.90
23010;DHT22;11671;49.990;8.028;2023-11-21T12:30:28;13.70;99.90
23010;DHT22;11671;49.990;8.028;2023-11-21T12:32:56;13.60;99.90
23010;DHT22;11671;49.990;8.028;2023-11-21T12:35:26;13.60;99.90
23010;DHT22;11671;49.990;8.028;2023-11-21T12:37:52;13.60;99.90
23010;DHT22;11671;49.990;8.028;2023-11-21T12:40:18;13.70;99.90
23010;DHT22;11671;49.990;8.028;2023-11-21T12:42:46;13.60;99.90
23010;DHT22;11671;49.990;8.028;2023-11-21T12:48:01;13.50;99.90
23010;DHT22;11671;49.990;8.028;2023-11-21T12:50:32;13.60;99.90
23010;DHT22;11671;49.990;8.028;2023-11-21T12:53:03;13.60;99.90
23010;DHT22;11671;49.990;8.028;2023-11-21T12:55:30;13.60;99.90
23010;DHT22;11671;49.990;8.028;2023-11-21T12:57:56;13.50;99.90
23010;DHT22;11671;49.990;8.028;2023-11-21T13:00:31;13.40;99.90
23010;DHT22;11671;49.990;8.028;2023-11-21T13:02:58;13.40;99.90
23010;DHT22;11671;49.990;8.028;2023-11-21T13:05:24;13.40;99.90
23010;DHT22;11671;49.990;8.028;2023-11-21T13:07:50;13.40;99.90
23010;DHT22;11671;49.990;8.028;2023-11-21T13:10:19;13.40;99.90
23010;DHT22;11671;49.990;8.028;2023-11-21T13:12:51;13.30;99.90
23010;DHT22;11671;49.990;8.028;2023-11-21T13:15:17;13.30;99.90
23010;DHT22;11671;49.990;8.028;2023-11-21T13:17:46;13.30;99.90
23010;DHT22;11671;49.990;8.028;2023-11-21T13:20:12;13.40;99.90
23010;DHT22;11671;49.990;8.028;2023-11-21T13:22:53;13.40;99.90
23010;DHT22;11671;49.990;8.028;2023-11-21T13:25:26;13.40;99.90
23010;DHT22;11671;49.990;8.028;2023-11-21T13:27:53;13.40;99.90
23010;DHT22;11671;49.990;8.028;2023-11-21T13:30:19;13.50;99.90
23010;DHT22;11671;49.990;8.028;2023-11-21T13:32:51;13.50;99.90
23010;DHT22;11671;49.990;8.028;2023-11-21T13:35:17;13.40;99.90
23010;DHT22;11671;49.990;8.028;2023-11-21T13:37:56;13.40;99.90
23010;DHT22;11671;49.990;8.028;2023-11-21T13:40:25;13.40;99.90
23010;DHT22;11671;49.990;8.028;2023-11-21T13:42:52;13.40;99.90
23010;DHT22;11671;49.990;8.028;2023-11-21T13:45:21;13.40;99.90
23010;DHT22;11671;49.990;8.028;2023-11-21T13:47:51;13.50;99.90
23010;DHT22;11671;49.990;8.028;2023-11-21T13:50:18;13.50;99.90
23010;DHT22;11671;49.990;8.028;2023-11-21T13:52:48;13.40;99.90
23010;DHT22;11671;49.990;8.028;2023-11-21T13:55:15;13.40;99.90
23010;DHT22;11671;49.990;8.028;2023-11-21T13:57:42;13.40;99.90
23010;DHT22;11671;49.990;8.028;2023-11-21T14:00:15;13.30;99.90
23010;DHT22;11671;49.990;8.028;2023-11-21T14:03:00;13.30;99.90
23010;DHT22;11671;49.990;8.028;2023-11-21T14:05:27;13.30;99.90
23010;DHT22;11671;49.990;8.028;2023-11-21T14:07:55;13.30;99.90
23010;DHT22;11671;49.990;8.028;2023-11-21T14:10:21;13.30;99.90
23010;DHT22;11671;49.990;8.028;2023-11-21T14:12:49;13.30;99.90
23010;DHT22;11671;49.990;8.028;2023-11-21T14:15:15;13.20;99.90
23010;DHT22;11671;49.990;8.028;2023-11-21T14:17:44;13.20;99.90
23010;DHT22;11671;49.990;8.028;2023-11-21T14:20:10;13.20;99.90
23010;DHT22;11671;49.990;8.028;2023-11-21T14:22:41;13.30;99.90
23010;DHT22;11671;49.990;8.028;2023-11-21T14:25:07;13.30;99.90
23010;DHT22;11671;49.990;8.028;2023-11-21T14:27:33;13.30;99.90
23010;DHT22;11671;49.990;8.028;2023-11-21T14:29:58;13.30;99.90
23010;DHT22;11671;49.990;8.028;2023-11-21T14:32:24;13.30;99.90
23010;DHT22;11671;49.990;8.028;2023-11-21T14:34:51;13.30;99.90
23010;DHT22;11671;49.990;8.028;2023-11-21T14:37:17;13.30;99.90
23010;DHT22;11671;49.990;8.028;2023-11-21T14:39:42;13.20;99.90
23010;DHT22;11671;49.990;8.028;2023-11-21T14:42:13;13.10;99.90
23010;DHT22;11671;49.990;8.028;2023-11-21T14:44:40;13.00;99.90
23010;DHT22;11671;49.990;8.028;2023-11-21T14:47:06;12.90;99.90
23010;DHT22;11671;49.990;8.028;2023-11-21T14:49:41;12.80;99.90
23010;DHT22;11671;49.990;8.028;2023-11-21T14:52:18;12.70;99.90
23010;DHT22;11671;49.990;8.028;2023-11-21T14:55:04;12.70;99.90
23010;DHT22;11671;49.990;8.028;2023-11-21T14:57:45;12.70;99.90
23010;DHT22;11671;49.990;8.028;2023-11-21T15:00:18;12.60;99.90
23010;DHT22;11671;49.990;8.028;2023-11-21T15:03:16;12.60;99.90
23010;DHT22;11671;49.990;8.028;2023-11-21T15:05:57;12.60;99.90
23010;DHT22;11671;49.990;8.028;2023-11-21T15:08:23;12.60;99.90
23010;DHT22;11671;49.990;8.028;2023-11-21T15:10:57;12.70;99.90
23010;DHT22;11671;49.990;8.028;2023-11-21T15:13:22;12.50;99.90
23010;DHT22;11671;49.990;8.028;2023-11-21T15:15:49;12.50;99.90
23010;DHT22;11671;49.990;8.028;2023-11-21T15:18:15;12.60;99.90
23010;DHT22;11671;49.990;8.028;2023-11-21T15:20:40;12.40;99.90
23010;DHT22;11671;49.990;8.028;2023-11-21T15:23:07;12.40;99.90
23010;DHT22;11671;49.990;8.028;2023-11-21T15:25:33;12.40;99.90
23010;DHT22;11671;49.990;8.028;2023-11-21T15:28:00;12.20;99.90
23010;DHT22;11671;49.990;8.028;2023-11-21T15:30:25;12.20;99.90
23010;DHT22;11671;49.990;8.028;2023-11-21T15:32:52;12.20;99.90
23010;DHT22;11671;49.990;8.028;2023-11-21T15:35:19;12.20;99.90
23010;DHT22;11671;49.990;8.028;2023-11-21T15:37:45;12.30;99.90
23010;DHT22;11671;49.990;8.028;2023-11-21T15:40:11;12.30;99.90